createdAt,value
2019-05-11T00:02:23.855Z,4.93
2019-05-11T00:04:52.432Z,6.07
2019-05-11T00:07:21.019Z,4.73
2019-05-11T00:09:58.009Z,6.53
2019-05-11T00:12:19.840Z,4.20
2019-05-11T00:14:48.452Z,6.60
2019-05-11T00:17:17.003Z,4.90
2019-05-11T00:19:45.586Z,5.37
2019-05-11T00:22:14.130Z,8.03
2019-05-11T00:24:42.696Z,4.63
2019-05-11T00:27:11.178Z,12.63
2019-05-11T00:29:39.767Z,5.30
2019-05-11T00:32:08.334Z,8.50
2019-05-11T00:34:36.888Z,7.40
2019-05-11T00:37:05.443Z,5.67
2019-05-11T00:39:34.020Z,7.17
2019-05-11T00:42:02.520Z,6.50
2019-05-11T00:44:31.076Z,4.83
2019-05-11T00:46:59.624Z,5.83
2019-05-11T00:49:28.101Z,5.67
2019-05-11T00:51:56.628Z,4.83
2019-05-11T00:54:25.174Z,8.90
2019-05-11T00:56:53.676Z,9.67
2019-05-11T00:59:22.467Z,6.37
2019-05-11T01:01:51.048Z,9.80
2019-05-11T01:04:21.133Z,6.90
2019-05-11T01:06:49.694Z,4.93
2019-05-11T01:09:18.215Z,5.30
2019-05-11T01:11:46.827Z,6.77
2019-05-11T01:14:15.388Z,6.30
2019-05-11T01:16:44.029Z,5.03
2019-05-11T01:19:12.512Z,10.93
2019-05-11T01:21:41.048Z,6.13
2019-05-11T01:24:09.584Z,6.13
2019-05-11T01:26:38.166Z,6.27
2019-05-11T01:29:06.723Z,5.80
2019-05-11T01:31:35.283Z,8.17
2019-05-11T01:34:03.840Z,13.00
2019-05-11T01:36:32.413Z,9.70
2019-05-11T01:39:00.980Z,12.37
2019-05-11T01:41:29.499Z,7.30
2019-05-11T01:43:58.046Z,5.83
2019-05-11T01:46:26.627Z,9.30
2019-05-11T01:48:55.121Z,13.97
2019-05-11T01:51:23.697Z,8.20
2019-05-11T01:53:52.272Z,6.13
2019-05-11T01:56:20.778Z,5.30
2019-05-11T01:58:49.342Z,8.93
2019-05-11T02:01:17.879Z,8.00
2019-05-11T02:03:46.421Z,8.07
2019-05-11T02:06:15.016Z,15.17
2019-05-11T02:08:43.530Z,6.83
2019-05-11T02:11:15.872Z,5.50
2019-05-11T02:13:42.311Z,7.17
2019-05-11T02:16:10.886Z,6.70
2019-05-11T02:18:39.380Z,6.40
2019-05-11T02:21:07.993Z,10.70
2019-05-11T02:23:36.507Z,7.50
2019-05-11T02:26:05.013Z,10.00
2019-05-11T02:28:33.570Z,6.40
2019-05-11T02:31:02.063Z,8.30
2019-05-11T02:33:30.647Z,9.27
2019-05-11T02:35:59.197Z,7.10
2019-05-11T02:38:27.722Z,7.70
2019-05-11T02:40:56.269Z,6.50
2019-05-11T02:43:24.782Z,6.43
2019-05-11T02:45:53.271Z,7.27
2019-05-11T02:48:24.353Z,7.73
2019-05-11T02:50:54.044Z,6.93
2019-05-11T02:53:22.824Z,7.10
2019-05-11T02:55:51.572Z,8.50
2019-05-11T02:58:20.149Z,7.40
2019-05-11T03:00:49.184Z,11.23
2019-05-11T03:03:17.788Z,8.33
2019-05-11T03:05:47.807Z,8.20
2019-05-11T03:08:16.308Z,7.10
2019-05-11T03:10:44.877Z,6.70
2019-05-11T03:13:13.561Z,7.13
2019-05-11T03:15:42.131Z,7.67
2019-05-11T03:18:10.702Z,8.20
2019-05-11T03:20:39.246Z,7.17
2019-05-11T03:23:07.839Z,8.70
2019-05-11T03:25:36.334Z,11.90
2019-05-11T03:28:04.910Z,10.37
2019-05-11T03:30:33.391Z,12.83
2019-05-11T03:33:01.974Z,9.70
2019-05-11T03:35:30.811Z,7.83
2019-05-11T03:37:59.401Z,8.43
2019-05-11T03:40:27.961Z,10.50
2019-05-11T03:42:56.549Z,9.67
2019-05-11T03:45:25.149Z,14.90
2019-05-11T03:47:53.714Z,9.70
2019-05-11T03:50:22.402Z,10.03
2019-05-11T03:52:50.995Z,11.50
2019-05-11T03:55:19.564Z,9.73
2019-05-11T03:57:48.106Z,13.50
2019-05-11T04:00:17.822Z,14.10
2019-05-11T04:02:46.407Z,12.13
2019-05-11T04:05:15.040Z,10.50
2019-05-11T04:07:43.654Z,14.07
2019-05-11T04:10:12.454Z,10.03
2019-05-11T04:12:40.945Z,9.80
2019-05-11T04:15:10.121Z,9.50
2019-05-11T04:17:38.628Z,10.07
2019-05-11T04:20:07.572Z,11.97
2019-05-11T04:22:36.134Z,13.60
2019-05-11T04:25:05.949Z,13.30
2019-05-11T04:27:36.072Z,15.70
2019-05-11T04:30:06.728Z,14.93
2019-05-11T04:32:35.262Z,16.23
2019-05-11T04:35:04.496Z,13.03
2019-05-11T04:37:33.227Z,13.30
2019-05-11T04:40:01.787Z,14.43
2019-05-11T04:42:30.380Z,16.83
2019-05-11T04:44:59.144Z,14.90
2019-05-11T04:47:27.703Z,21.47
2019-05-11T04:49:56.287Z,16.13
2019-05-11T04:52:24.852Z,20.47
2019-05-11T04:54:54.950Z,15.53
2019-05-11T04:57:23.443Z,13.47
2019-05-11T04:59:52.124Z,16.10
2019-05-11T05:02:21.844Z,11.93
2019-05-11T05:04:50.550Z,12.97
2019-05-11T05:07:22.077Z,12.17
2019-05-11T05:09:50.747Z,16.10
2019-05-11T05:12:19.232Z,16.10
2019-05-11T05:14:47.810Z,14.67
2019-05-11T05:17:20.928Z,11.70
2019-05-11T05:19:49.484Z,14.30
2019-05-11T05:22:17.981Z,14.90
2019-05-11T05:24:46.518Z,10.37
2019-05-11T05:27:15.049Z,9.20
2019-05-11T05:29:43.583Z,12.40
2019-05-11T05:32:12.135Z,16.43
2019-05-11T05:34:40.620Z,10.50
2019-05-11T05:37:09.126Z,9.37
2019-05-11T05:39:37.638Z,9.43
2019-05-11T05:42:08.177Z,11.60
2019-05-11T05:44:36.388Z,9.53
2019-05-11T05:47:04.934Z,8.70
2019-05-11T05:49:33.479Z,7.90
2019-05-11T05:52:02.071Z,7.60
2019-05-11T05:54:30.581Z,8.23
2019-05-11T05:56:59.316Z,9.60
2019-05-11T05:59:27.989Z,9.83
2019-05-11T06:01:56.607Z,10.30
2019-05-11T06:04:25.135Z,8.50
2019-05-11T06:06:53.782Z,9.83
2019-05-11T06:09:22.334Z,8.73
2019-05-11T06:11:50.958Z,7.83
2019-05-11T06:14:19.525Z,8.00
2019-05-11T06:16:48.125Z,8.70
2019-05-11T06:19:16.675Z,10.10
2019-05-11T06:21:45.259Z,7.60
2019-05-11T06:24:13.845Z,12.80
2019-05-11T06:26:42.485Z,7.37
2019-05-11T06:29:11.128Z,6.60
2019-05-11T06:31:39.843Z,8.10
2019-05-11T06:34:08.435Z,6.53
2019-05-11T06:36:37.010Z,7.53
2019-05-11T06:39:07.837Z,6.13
2019-05-11T06:41:37.528Z,6.10
2019-05-11T06:44:06.305Z,6.13
2019-05-11T06:46:35.317Z,6.70
2019-05-11T06:49:04.107Z,6.40
2019-05-11T06:51:32.847Z,5.83
2019-05-11T06:54:01.453Z,11.40
2019-05-11T06:56:30.059Z,5.67
2019-05-11T06:58:58.753Z,5.27
2019-05-11T07:01:27.471Z,5.17
2019-05-11T07:03:56.132Z,10.07
2019-05-11T07:06:28.171Z,4.30
2019-05-11T07:08:54.821Z,5.37
2019-05-11T07:11:23.402Z,6.00
2019-05-11T07:13:52.749Z,4.43
2019-05-11T07:16:21.239Z,7.50
2019-05-11T07:18:49.775Z,4.57
2019-05-11T07:21:18.303Z,6.00
2019-05-11T07:23:46.872Z,3.90
2019-05-11T07:26:15.473Z,3.77
2019-05-11T07:28:44.044Z,5.30
2019-05-11T07:31:12.655Z,5.37
2019-05-11T07:33:41.405Z,6.37
2019-05-11T07:36:10.055Z,7.23
2019-05-11T07:38:38.654Z,5.40
2019-05-11T07:41:08.772Z,3.90
2019-05-11T07:43:38.130Z,6.70
2019-05-11T07:46:07.791Z,5.47
2019-05-11T07:48:38.606Z,3.23
2019-05-11T07:51:08.997Z,3.93
2019-05-11T07:53:38.188Z,6.00
2019-05-11T07:56:08.320Z,3.97
2019-05-11T07:58:38.682Z,8.97
2019-05-11T08:01:08.721Z,4.60
2019-05-11T08:03:38.862Z,7.67
2019-05-11T08:06:08.895Z,4.30
2019-05-11T08:08:38.417Z,2.80
2019-05-11T08:11:08.122Z,6.40
2019-05-11T08:13:38.781Z,3.83
2019-05-11T08:16:08.267Z,4.33
2019-05-11T08:18:38.686Z,6.20
2019-05-11T08:21:08.877Z,4.63
2019-05-11T08:23:37.779Z,5.20
2019-05-11T08:26:08.410Z,6.20
2019-05-11T08:28:38.113Z,4.13
2019-05-11T08:31:08.053Z,6.90
2019-05-11T08:33:38.888Z,4.80
2019-05-11T08:36:08.314Z,10.63
2019-05-11T08:38:37.775Z,2.43
2019-05-11T08:41:08.066Z,10.67
2019-05-11T08:43:38.840Z,6.57
2019-05-11T08:46:08.730Z,5.73
2019-05-11T08:48:38.866Z,7.50
2019-05-11T08:51:08.411Z,10.07
2019-05-11T08:53:38.753Z,5.50
2019-05-11T08:56:11.107Z,5.80
2019-05-11T08:58:38.147Z,9.70
2019-05-11T09:01:08.735Z,4.60
2019-05-11T09:03:38.740Z,4.93
2019-05-11T09:06:08.410Z,7.50
2019-05-11T09:08:58.285Z,4.17
2019-05-11T09:11:28.355Z,5.17
2019-05-11T09:13:57.857Z,7.43
2019-05-11T09:16:28.905Z,8.80
2019-05-11T09:18:58.136Z,8.37
2019-05-11T09:21:28.126Z,7.30
2019-05-11T09:23:57.834Z,6.40
2019-05-11T09:26:28.679Z,4.57
2019-05-11T09:28:58.223Z,4.27
2019-05-11T09:31:28.002Z,3.13
2019-05-11T09:33:58.416Z,7.00
2019-05-11T09:36:28.510Z,5.83
2019-05-11T09:38:58.167Z,4.47
2019-05-11T09:41:28.895Z,7.77
2019-05-11T09:43:58.664Z,5.27
2019-05-11T09:46:27.990Z,3.30
2019-05-11T09:48:58.782Z,6.23
2019-05-11T09:51:28.788Z,13.23
2019-05-11T09:53:58.722Z,11.40
2019-05-11T09:56:28.769Z,4.60
2019-05-11T09:58:58.151Z,9.10
2019-05-11T10:01:26.779Z,4.83
2019-05-11T10:03:55.465Z,10.23
2019-05-11T10:06:24.052Z,5.70
2019-05-11T10:08:52.625Z,4.63
2019-05-11T10:11:21.183Z,7.17
2019-05-11T10:13:49.731Z,5.43
2019-05-11T10:16:18.349Z,5.33
2019-05-11T10:18:49.122Z,5.87
2019-05-11T10:21:18.760Z,5.90
2019-05-11T10:23:48.922Z,5.60
2019-05-11T10:26:18.645Z,3.47
2019-05-11T10:28:48.270Z,6.53
2019-05-11T10:31:18.141Z,5.30
2019-05-11T10:33:48.873Z,5.20
2019-05-11T10:36:18.887Z,3.70
2019-05-11T10:38:48.703Z,3.93
2019-05-11T10:41:18.323Z,7.27
2019-05-11T10:43:48.949Z,3.23
2019-05-11T10:46:23.071Z,6.43
2019-05-11T10:48:48.456Z,7.00
2019-05-11T10:51:18.386Z,5.23
2019-05-11T10:53:51.700Z,7.63
2019-05-11T10:56:18.005Z,6.87
2019-05-11T10:58:48.257Z,6.13
2019-05-11T11:01:18.169Z,6.90
2019-05-11T11:03:48.400Z,4.40
2019-05-11T11:06:18.803Z,12.57
2019-05-11T11:08:50.400Z,11.20
2019-05-11T11:11:18.979Z,5.20
2019-05-11T11:13:48.190Z,8.43
2019-05-11T11:16:32.684Z,4.63
2019-05-11T11:18:48.539Z,5.63
2019-05-11T11:21:22.420Z,6.50
2019-05-11T11:23:48.168Z,5.33
2019-05-11T11:26:18.475Z,3.90
2019-05-11T11:28:47.746Z,5.03
2019-05-11T11:31:18.964Z,5.40
2019-05-11T11:33:48.894Z,6.57
2019-05-11T11:36:17.959Z,11.83
2019-05-11T11:38:47.770Z,4.50
2019-05-11T11:41:18.597Z,8.53
2019-05-11T11:43:48.418Z,5.93
2019-05-11T11:46:18.761Z,10.77
2019-05-11T11:48:48.845Z,6.20
2019-05-11T11:51:18.733Z,4.73
2019-05-11T11:53:47.908Z,7.03
2019-05-11T11:56:18.829Z,8.20
2019-05-11T11:58:48.762Z,3.70
2019-05-11T12:01:18.917Z,7.60
2019-05-11T12:03:48.725Z,5.03
2019-05-11T12:06:18.372Z,6.40
2019-05-11T12:08:49.376Z,10.00
2019-05-11T12:11:18.687Z,4.03
2019-05-11T12:13:47.803Z,4.80
2019-05-11T12:16:18.142Z,7.70
2019-05-11T12:18:48.676Z,4.10
2019-05-11T12:21:18.555Z,5.60
2019-05-11T12:23:48.550Z,8.63
2019-05-11T12:26:17.846Z,9.00
2019-05-11T12:28:48.760Z,8.90
2019-05-11T12:31:18.511Z,4.87
2019-05-11T12:33:48.203Z,6.13
2019-05-11T12:36:18.747Z,5.53
2019-05-11T12:38:48.913Z,9.00
2019-05-11T12:41:18.963Z,5.00
2019-05-11T12:43:48.932Z,3.77
2019-05-11T12:46:18.914Z,8.13
2019-05-11T12:48:48.530Z,7.77
2019-05-11T12:51:18.566Z,6.80
2019-05-11T12:53:47.780Z,4.93
2019-05-11T12:56:18.715Z,7.00
2019-05-11T12:58:48.921Z,3.53
2019-05-11T13:01:18.818Z,5.93
2019-05-11T13:03:49.254Z,6.77
2019-05-11T13:06:19.074Z,4.93
2019-05-11T13:08:48.255Z,3.57
2019-05-11T13:11:18.676Z,4.30
2019-05-11T13:13:48.423Z,6.23
2019-05-11T13:16:18.294Z,3.63
2019-05-11T13:18:48.711Z,6.60
2019-05-11T13:21:18.272Z,7.33
2019-05-11T13:23:48.919Z,3.97
2019-05-11T13:26:18.039Z,8.67
2019-05-11T13:28:48.465Z,5.03
2019-05-11T13:31:18.703Z,7.87
2019-05-11T13:33:47.978Z,5.20
2019-05-11T13:36:18.580Z,8.27
2019-05-11T13:38:48.295Z,8.57
2019-05-11T13:41:18.763Z,4.60
2019-05-11T13:43:48.525Z,11.50
2019-05-11T13:46:18.017Z,9.63
2019-05-11T13:48:47.651Z,8.90
2019-05-11T13:51:18.353Z,4.23
2019-05-11T13:53:48.207Z,11.43
2019-05-11T13:56:18.385Z,5.63
2019-05-11T13:58:48.858Z,8.03
2019-05-11T14:01:18.389Z,8.30
2019-05-11T14:03:48.441Z,6.97
2019-05-11T14:06:18.418Z,4.53
2019-05-11T14:08:48.181Z,5.50
2019-05-11T14:11:18.179Z,12.57
2019-05-11T14:13:48.050Z,10.40
2019-05-11T14:16:18.663Z,10.30
2019-05-11T14:18:48.792Z,8.07
2019-05-11T14:21:18.488Z,10.00
2019-05-11T14:23:48.387Z,9.13
2019-05-11T14:26:19.163Z,8.80
2019-05-11T14:28:48.096Z,11.03
2019-05-11T14:31:18.892Z,9.80
2019-05-11T14:33:48.899Z,6.00
2019-05-11T14:36:18.422Z,6.20
2019-05-11T14:38:48.743Z,5.40
2019-05-11T14:41:18.152Z,11.23
2019-05-11T14:43:48.977Z,13.07
2019-05-11T14:46:18.089Z,8.70
2019-05-11T14:48:48.141Z,5.70
2019-05-11T14:51:17.959Z,7.63
2019-05-11T14:54:08.110Z,9.70
2019-05-11T14:56:38.008Z,9.57
2019-05-11T14:59:08.970Z,10.13
2019-05-11T15:01:38.245Z,9.97
2019-05-11T15:04:09.132Z,14.57
2019-05-11T15:06:38.652Z,11.80
2019-05-11T15:09:08.439Z,9.27
2019-05-11T15:11:38.830Z,10.93
2019-05-11T15:14:08.200Z,8.90
2019-05-11T15:16:38.432Z,6.67
2019-05-11T15:19:08.033Z,10.57
2019-05-11T15:21:38.654Z,12.10
2019-05-11T15:24:09.068Z,8.77
2019-05-11T15:26:38.162Z,7.30
2019-05-11T15:29:08.107Z,11.27
2019-05-11T15:31:38.134Z,11.47
2019-05-11T15:34:08.528Z,6.93
2019-05-11T15:36:38.631Z,8.27
2019-05-11T15:39:07.982Z,13.87
2019-05-11T15:41:38.582Z,10.20
2019-05-11T15:44:11.443Z,11.70
2019-05-11T15:46:38.895Z,9.63
2019-05-11T15:49:08.865Z,9.13
2019-05-11T15:51:40.777Z,14.30
2019-05-11T15:54:08.032Z,15.47
2019-05-11T15:56:38.564Z,12.17
2019-05-11T15:59:08.643Z,19.57
2019-05-11T16:01:38.266Z,12.83
2019-05-11T16:04:09.105Z,19.60
2019-05-11T16:06:37.939Z,10.40
2019-05-11T16:09:08.503Z,11.60
2019-05-11T16:11:38.716Z,10.80
2019-05-11T16:14:08.558Z,8.83
2019-05-11T16:16:39.078Z,15.63
2019-05-11T16:19:14.462Z,8.30
2019-05-11T16:21:38.472Z,13.80
2019-05-11T16:24:08.003Z,10.03
2019-05-11T16:26:36.949Z,10.30
2019-05-11T16:29:05.522Z,12.77
2019-05-11T16:31:34.117Z,10.10
2019-05-11T16:34:02.893Z,14.00
2019-05-11T16:36:31.720Z,12.30
2019-05-11T16:39:00.312Z,12.30
2019-05-11T16:41:29.257Z,8.03
2019-05-11T16:43:59.046Z,10.70
2019-05-11T16:46:28.464Z,9.67
2019-05-11T16:48:57.879Z,9.90
2019-05-11T16:51:28.387Z,13.40
2019-05-11T16:53:58.730Z,8.60
2019-05-11T16:56:27.231Z,9.83
2019-05-11T16:58:58.878Z,8.43
2019-05-11T17:01:26.047Z,10.53
2019-05-11T17:03:54.819Z,10.53
2019-05-11T17:06:23.687Z,9.73
2019-05-11T17:08:52.332Z,9.80
2019-05-11T17:11:20.916Z,15.10
2019-05-11T17:13:49.512Z,10.13
2019-05-11T17:16:19.710Z,13.07
2019-05-11T17:18:48.593Z,9.57
2019-05-11T17:21:18.276Z,10.40
2019-05-11T17:23:48.818Z,10.23
2019-05-11T17:26:19.017Z,17.07
2019-05-11T17:28:48.928Z,11.93
2019-05-11T17:31:18.893Z,13.00
2019-05-11T17:33:47.778Z,9.73
2019-05-11T17:36:18.515Z,13.00
2019-05-11T17:38:47.937Z,9.37
2019-05-11T17:41:16.815Z,14.77
2019-05-11T17:43:47.796Z,8.63
2019-05-11T17:46:18.240Z,18.80
2019-05-11T17:48:46.122Z,16.33
2019-05-11T17:51:21.456Z,17.30
2019-05-11T17:53:48.209Z,10.87
2019-05-11T17:56:16.976Z,14.63
2019-05-11T17:58:48.206Z,15.20
2019-05-11T18:01:18.497Z,8.67
2019-05-11T18:03:46.607Z,12.47
2019-05-11T18:06:15.349Z,12.97
2019-05-11T18:08:44.254Z,23.60
2019-05-11T18:11:12.870Z,16.20
2019-05-11T18:13:43.892Z,20.07
2019-05-11T18:16:14.012Z,22.77
2019-05-11T18:18:42.644Z,18.60
2019-05-11T18:21:11.334Z,25.63
2019-05-11T18:23:41.738Z,22.40
2019-05-11T18:26:10.336Z,19.47
2019-05-11T18:28:38.985Z,13.03
2019-05-11T18:31:07.691Z,11.60
2019-05-11T18:33:38.174Z,15.33
2019-05-11T18:36:08.059Z,16.00
2019-05-11T18:38:38.108Z,16.00
2019-05-11T18:41:07.036Z,17.73
2019-05-11T18:43:37.621Z,13.57
2019-05-11T18:46:08.355Z,16.63
2019-05-11T18:48:38.105Z,14.43
2019-05-11T18:51:08.704Z,13.33
2019-05-11T18:53:37.190Z,14.77
2019-05-11T18:56:08.873Z,15.83
2019-05-11T18:58:38.360Z,10.83
2019-05-11T19:01:07.585Z,13.63
2019-05-11T19:03:38.351Z,12.07
2019-05-11T19:06:09.075Z,10.90
2019-05-11T19:08:38.494Z,12.90
2019-05-11T19:11:09.246Z,16.20
2019-05-11T19:13:38.703Z,15.07
2019-05-11T19:16:08.649Z,10.20
2019-05-11T19:18:38.745Z,11.60
2019-05-11T19:21:09.151Z,10.47
2019-05-11T19:23:38.106Z,9.50
2019-05-11T19:26:08.407Z,8.93
2019-05-11T19:28:38.470Z,15.10
2019-05-11T19:31:11.268Z,18.00
2019-05-11T19:33:39.141Z,10.93
2019-05-11T19:36:07.965Z,11.63
2019-05-11T19:38:38.435Z,19.63
2019-05-11T19:41:08.052Z,15.00
2019-05-11T19:43:38.191Z,14.30
2019-05-11T19:46:08.881Z,10.27
2019-05-11T19:48:40.028Z,11.30
2019-05-11T19:51:11.719Z,16.50
2019-05-11T19:53:39.011Z,6.90
2019-05-11T19:56:07.851Z,6.97
2019-05-11T19:58:38.106Z,9.37
2019-05-11T20:01:09.572Z,10.30
2019-05-11T20:03:38.268Z,11.40
2019-05-11T20:06:08.944Z,7.07
2019-05-11T20:08:37.704Z,9.97
2019-05-11T20:11:08.273Z,8.80
2019-05-11T20:13:38.675Z,8.63
2019-05-11T20:16:08.243Z,13.03
2019-05-11T20:18:37.073Z,10.93
2019-05-11T20:21:16.656Z,5.97
2019-05-11T20:23:37.924Z,12.03
2019-05-11T20:26:08.861Z,8.60
2019-05-11T20:28:37.911Z,12.30
2019-05-11T20:31:08.061Z,11.70
2019-05-11T20:33:38.525Z,10.53
2019-05-11T20:36:08.885Z,5.70
2019-05-11T20:38:38.395Z,7.83
2019-05-11T20:41:08.706Z,17.00
2019-05-11T20:43:37.304Z,5.60
2019-05-11T20:46:08.029Z,8.60
2019-05-11T20:48:38.162Z,11.30
2019-05-11T20:51:08.111Z,4.77
2019-05-11T20:53:38.781Z,7.90
2019-05-11T20:56:08.579Z,6.17
2019-05-11T20:58:59.557Z,9.90
2019-05-11T21:01:28.733Z,4.63
2019-05-11T21:03:58.438Z,5.70
2019-05-11T21:06:29.410Z,6.10
2019-05-11T21:08:57.715Z,7.00
2019-05-11T21:11:26.439Z,5.70
2019-05-11T21:13:55.170Z,3.80
2019-05-11T21:16:23.793Z,7.87
2019-05-11T21:18:53.702Z,5.80
2019-05-11T21:21:22.277Z,7.00
2019-05-11T21:23:50.901Z,6.60
2019-05-11T21:26:19.491Z,3.33
2019-05-11T21:28:48.807Z,5.87
2019-05-11T21:31:20.281Z,4.83
2019-05-11T21:33:48.850Z,8.47
2019-05-11T21:36:17.996Z,7.77
2019-05-11T21:38:48.176Z,8.80
2019-05-11T21:41:16.977Z,15.47
2019-05-11T21:43:45.601Z,4.00
2019-05-11T21:46:14.428Z,6.87
2019-05-11T21:48:43.021Z,5.33
2019-05-11T21:51:11.601Z,6.63
2019-05-11T21:53:40.192Z,7.97
2019-05-11T21:56:08.789Z,5.70
2019-05-11T21:58:37.768Z,6.13
2019-05-11T22:01:07.011Z,5.97
2019-05-11T22:03:35.691Z,6.17
2019-05-11T22:06:04.309Z,4.43
2019-05-11T22:08:32.873Z,5.27
2019-05-11T22:11:01.608Z,4.97
2019-05-11T22:13:30.242Z,4.00
2019-05-11T22:15:58.811Z,4.80
2019-05-11T22:18:31.293Z,2.67
2019-05-11T22:20:58.114Z,6.07
2019-05-11T22:23:28.156Z,4.70
2019-05-11T22:25:58.762Z,3.83
2019-05-11T22:28:28.464Z,3.90
2019-05-11T22:30:57.219Z,3.77
2019-05-11T22:33:25.723Z,10.87
2019-05-11T22:35:54.360Z,6.97
2019-05-11T22:38:22.914Z,3.30
2019-05-11T22:40:51.469Z,3.73
2019-05-11T22:43:20.043Z,6.33
2019-05-11T22:45:48.681Z,5.47
2019-05-11T22:48:17.213Z,4.47
2019-05-11T22:50:48.056Z,4.20
2019-05-11T22:53:18.580Z,8.63
2019-05-11T22:55:48.419Z,14.10
2019-05-11T22:58:17.871Z,6.30
2019-05-11T23:00:46.521Z,3.10
2019-05-11T23:03:15.100Z,2.23
2019-05-11T23:05:43.775Z,7.47
2019-05-11T23:08:12.328Z,3.70
2019-05-11T23:10:43.251Z,5.30
2019-05-11T23:13:11.870Z,5.90
2019-05-11T23:15:40.702Z,6.53
2019-05-11T23:18:09.198Z,5.10
2019-05-11T23:20:38.736Z,3.77
2019-05-11T23:23:08.779Z,3.80
2019-05-11T23:25:37.643Z,5.50
2019-05-11T23:28:06.197Z,3.63
2019-05-11T23:30:34.770Z,7.40
2019-05-11T23:33:03.344Z,5.50
2019-05-11T23:35:31.857Z,5.93
2019-05-11T23:38:00.384Z,3.80
2019-05-11T23:40:28.873Z,3.17
2019-05-11T23:42:57.919Z,3.07
2019-05-11T23:45:27.945Z,5.53
2019-05-11T23:47:58.670Z,2.40
2019-05-11T23:50:28.198Z,3.60
2019-05-11T23:53:06.550Z,7.23
2019-05-11T23:55:29.226Z,2.13
2019-05-11T23:57:57.779Z,4.43
